createdAt,value
2018-05-11T00:01:03.965Z,14.60
2018-05-11T00:03:31.434Z,14.33
2018-05-11T00:05:58.976Z,14.51
2018-05-11T00:08:26.463Z,14.53
2018-05-11T00:10:53.956Z,14.58
2018-05-11T00:13:21.465Z,14.32
2018-05-11T00:15:48.967Z,14.72
2018-05-11T00:18:16.437Z,14.52
2018-05-11T00:20:43.961Z,14.56
2018-05-11T00:23:11.471Z,14.55
2018-05-11T00:25:38.970Z,14.40
2018-05-11T00:28:06.495Z,14.50
2018-05-11T00:30:33.997Z,14.52
2018-05-11T00:33:01.533Z,14.47
2018-05-11T00:35:29.006Z,14.63
2018-05-11T00:37:56.514Z,14.61
2018-05-11T00:40:24.047Z,14.48
2018-05-11T00:42:51.579Z,14.73
2018-05-11T00:45:19.089Z,14.28
2018-05-11T00:47:46.559Z,14.48
2018-05-11T00:50:14.039Z,14.40
2018-05-11T00:52:41.598Z,14.16
2018-05-11T00:55:20.973Z,14.42
2018-05-11T00:57:48.442Z,14.23
2018-05-11T01:00:15.902Z,14.64
2018-05-11T01:02:43.395Z,14.52
2018-05-11T01:05:10.879Z,14.48
2018-05-11T01:07:38.370Z,14.21
2018-05-11T01:10:05.914Z,14.38
2018-05-11T01:12:33.484Z,14.40
2018-05-11T01:15:00.957Z,14.46
2018-05-11T01:17:28.436Z,14.51
2018-05-11T01:19:56.040Z,14.47
2018-05-11T01:22:23.508Z,14.57
2018-05-11T01:24:51.061Z,14.51
2018-05-11T01:27:19.035Z,14.41
2018-05-11T01:29:46.552Z,14.64
2018-05-11T01:32:14.037Z,14.53
2018-05-11T01:34:41.552Z,14.56
2018-05-11T01:37:09.154Z,14.45
2018-05-11T01:39:36.646Z,14.38
2018-05-11T01:42:04.485Z,14.20
2018-05-11T01:44:31.996Z,14.39
2018-05-11T01:46:59.462Z,14.23
2018-05-11T01:49:26.993Z,14.19
2018-05-11T01:51:54.495Z,14.33
2018-05-11T01:54:22.051Z,14.37
2018-05-11T01:56:49.557Z,14.35
2018-05-11T01:59:17.025Z,14.40
2018-05-11T02:01:44.539Z,14.37
2018-05-11T02:04:12.008Z,14.43
2018-05-11T02:06:39.535Z,14.50
2018-05-11T02:09:07.005Z,14.53
2018-05-11T02:11:34.636Z,14.45
2018-05-11T02:14:02.112Z,14.29
2018-05-11T02:16:29.607Z,14.22
2018-05-11T02:18:57.071Z,14.29
2018-05-11T02:21:24.610Z,14.58
2018-05-11T02:23:52.103Z,14.30
2018-05-11T02:26:19.604Z,14.26
2018-05-11T02:28:47.074Z,14.35
2018-05-11T02:31:14.590Z,14.16
2018-05-11T02:33:42.089Z,14.24
2018-05-11T02:36:09.665Z,14.28
2018-05-11T02:38:37.164Z,14.24
2018-05-11T02:41:04.658Z,14.23
2018-05-11T02:43:32.147Z,14.40
2018-05-11T02:45:59.626Z,14.37
2018-05-11T02:48:27.159Z,14.34
2018-05-11T02:50:54.624Z,14.35
2018-05-11T02:53:22.115Z,14.03
2018-05-11T02:55:49.658Z,14.04
2018-05-11T02:58:17.197Z,14.24
2018-05-11T03:00:44.703Z,14.37
2018-05-11T03:03:12.188Z,14.38
2018-05-11T03:05:39.753Z,14.38
2018-05-11T03:08:07.228Z,14.22
2018-05-11T03:10:35.221Z,14.21
2018-05-11T03:13:02.689Z,14.27
2018-05-11T03:15:30.189Z,14.23
2018-05-11T03:17:57.680Z,14.15
2018-05-11T03:20:25.309Z,14.32
2018-05-11T03:22:52.795Z,14.00
2018-05-11T03:25:20.283Z,14.37
2018-05-11T03:27:47.804Z,14.23
2018-05-11T03:30:15.345Z,14.07
2018-05-11T03:32:42.855Z,14.34
2018-05-11T03:35:10.319Z,14.09
2018-05-11T03:37:37.867Z,14.31
2018-05-11T03:40:05.404Z,14.38
2018-05-11T03:42:32.900Z,14.21
2018-05-11T03:45:00.387Z,14.28
2018-05-11T03:47:27.916Z,14.41
2018-05-11T03:49:55.428Z,14.31
2018-05-11T03:52:22.917Z,14.29
2018-05-11T03:54:50.413Z,14.14
2018-05-11T03:57:17.972Z,14.36
2018-05-11T03:59:45.466Z,14.22
2018-05-11T04:02:24.700Z,14.36
2018-05-11T04:05:04.066Z,14.34
2018-05-11T04:07:44.200Z,14.23
2018-05-11T04:10:11.718Z,14.06
2018-05-11T04:12:39.187Z,13.97
2018-05-11T04:15:06.739Z,14.10
2018-05-11T04:17:34.209Z,14.12
2018-05-11T04:20:01.874Z,14.21
2018-05-11T04:22:29.381Z,14.12
2018-05-11T04:24:56.873Z,14.05
2018-05-11T04:27:24.381Z,14.07
2018-05-11T04:29:51.864Z,14.24
2018-05-11T04:32:19.390Z,14.06
2018-05-11T04:34:46.911Z,14.22
2018-05-11T04:37:14.427Z,14.18
2018-05-11T04:39:42.031Z,14.24
2018-05-11T04:42:09.499Z,14.19
2018-05-11T04:44:37.014Z,14.40
2018-05-11T04:47:04.513Z,14.47
2018-05-11T04:49:32.396Z,14.34
2018-05-11T04:51:59.894Z,14.02
2018-05-11T04:54:27.452Z,13.83
2018-05-11T04:56:54.964Z,14.15
2018-05-11T04:59:22.446Z,14.10
2018-05-11T05:01:49.927Z,13.88
2018-05-11T05:04:17.502Z,14.11
2018-05-11T05:06:44.999Z,13.94
2018-05-11T05:09:12.514Z,13.85
2018-05-11T05:11:40.042Z,13.86
2018-05-11T05:14:07.647Z,13.97
2018-05-11T05:16:35.138Z,13.81
2018-05-11T05:19:02.665Z,13.89
2018-05-11T05:21:30.117Z,13.98
2018-05-11T05:23:57.622Z,14.09
2018-05-11T05:26:25.095Z,13.91
2018-05-11T05:28:52.622Z,13.80
2018-05-11T05:31:20.133Z,13.97
2018-05-11T05:33:47.663Z,13.99
2018-05-11T05:36:15.245Z,13.99
2018-05-11T05:38:42.708Z,14.20
2018-05-11T05:41:10.192Z,14.26
2018-05-11T05:43:37.726Z,14.16
2018-05-11T05:46:05.209Z,14.31
2018-05-11T05:48:32.711Z,14.30
2018-05-11T05:51:00.228Z,14.19
2018-05-11T05:53:27.790Z,14.44
2018-05-11T05:55:55.281Z,14.43
2018-05-11T05:58:22.783Z,14.54
2018-05-11T06:00:50.301Z,14.44
2018-05-11T06:03:17.783Z,14.66
2018-05-11T06:05:45.330Z,14.53
2018-05-11T06:08:12.829Z,14.60
2018-05-11T06:10:40.342Z,14.74
2018-05-11T06:13:07.927Z,14.38
2018-05-11T06:15:35.446Z,14.59
2018-05-11T06:18:02.926Z,14.77
2018-05-11T06:20:30.452Z,14.70
2018-05-11T06:22:57.965Z,14.74
2018-05-11T06:25:25.463Z,14.81
2018-05-11T06:27:52.990Z,14.78
2018-05-11T06:30:20.504Z,14.92
2018-05-11T06:32:48.008Z,15.11
2018-05-11T06:35:15.506Z,14.93
2018-05-11T06:37:42.974Z,15.03
2018-05-11T06:40:10.493Z,15.11
2018-05-11T06:42:37.964Z,15.16
2018-05-11T06:45:05.508Z,15.05
2018-05-11T06:47:33.011Z,15.00
2018-05-11T06:50:00.507Z,14.97
2018-05-11T06:52:27.988Z,14.82
2018-05-11T06:54:55.508Z,14.88
2018-05-11T06:57:23.007Z,14.61
2018-05-11T06:59:50.510Z,14.96
2018-05-11T07:02:17.979Z,14.73
2018-05-11T07:04:45.576Z,15.06
2018-05-11T07:07:13.049Z,15.06
2018-05-11T07:09:40.563Z,15.15
2018-05-11T07:12:08.056Z,15.28
2018-05-11T07:14:35.587Z,15.39
2018-05-11T07:17:03.054Z,15.16
2018-05-11T07:19:30.629Z,15.44
2018-05-11T07:21:58.057Z,15.28
2018-05-11T07:24:25.612Z,15.20
2018-05-11T07:26:53.131Z,15.31
2018-05-11T07:29:20.686Z,15.51
2018-05-11T07:31:48.175Z,15.38
2018-05-11T07:34:15.826Z,15.63
2018-05-11T07:36:43.312Z,15.61
2018-05-11T07:39:10.844Z,15.40
2018-05-11T07:41:38.340Z,15.48
2018-05-11T07:44:05.881Z,15.68
2018-05-11T07:46:33.369Z,15.63
2018-05-11T07:49:00.880Z,15.69
2018-05-11T07:51:28.566Z,15.44
2018-05-11T07:53:56.028Z,15.36
2018-05-11T07:56:24.140Z,15.51
2018-05-11T07:58:51.652Z,15.77
2018-05-11T08:01:19.125Z,15.85
2018-05-11T08:03:46.609Z,15.75
2018-05-11T08:06:14.129Z,15.72
2018-05-11T08:08:41.609Z,15.60
2018-05-11T08:11:09.166Z,15.72
2018-05-11T08:13:36.659Z,15.66
2018-05-11T08:16:04.156Z,15.86
2018-05-11T08:18:31.767Z,15.92
2018-05-11T08:20:59.262Z,15.92
2018-05-11T08:23:26.765Z,15.98
2018-05-11T08:25:54.322Z,15.98
2018-05-11T08:28:21.790Z,15.96
2018-05-11T08:30:49.301Z,16.08
2018-05-11T08:33:16.779Z,16.09
2018-05-11T08:35:44.483Z,16.07
2018-05-11T08:38:11.928Z,16.00
2018-05-11T08:40:39.427Z,16.22
2018-05-11T08:43:06.986Z,16.13
2018-05-11T08:45:34.483Z,16.24
2018-05-11T08:48:02.001Z,15.94
2018-05-11T08:50:29.484Z,16.13
2018-05-11T08:52:56.977Z,16.25
2018-05-11T08:55:24.514Z,16.27
2018-05-11T08:57:51.998Z,16.16
2018-05-11T09:00:19.519Z,16.30
2018-05-11T09:02:47.026Z,16.35
2018-05-11T09:05:14.586Z,16.47
2018-05-11T09:07:42.094Z,16.46
2018-05-11T09:10:09.591Z,16.55
2018-05-11T09:12:37.224Z,16.41
2018-05-11T09:15:04.715Z,16.51
2018-05-11T09:17:32.222Z,16.50
2018-05-11T09:19:59.707Z,16.49
2018-05-11T09:22:27.294Z,16.42
2018-05-11T09:24:55.487Z,16.51
2018-05-11T09:27:22.990Z,16.68
2018-05-11T09:29:50.543Z,16.72
2018-05-11T09:32:18.056Z,16.75
2018-05-11T09:34:45.639Z,16.59
2018-05-11T09:37:13.170Z,16.62
2018-05-11T09:39:40.694Z,16.52
2018-05-11T09:42:08.205Z,16.55
2018-05-11T09:44:35.708Z,16.69
2018-05-11T09:47:03.188Z,16.73
2018-05-11T09:49:30.763Z,16.75
2018-05-11T09:51:58.229Z,17.08
2018-05-11T09:54:25.845Z,17.12
2018-05-11T09:56:53.323Z,17.03
2018-05-11T09:59:21.318Z,16.89
2018-05-11T10:01:48.831Z,17.08
2018-05-11T10:04:16.689Z,16.99
2018-05-11T10:06:44.180Z,17.28
2018-05-11T10:09:11.654Z,17.15
2018-05-11T10:11:39.179Z,17.50
2018-05-11T10:14:06.720Z,17.33
2018-05-11T10:16:34.449Z,17.51
2018-05-11T10:19:01.967Z,17.54
2018-05-11T10:21:29.506Z,17.59
2018-05-11T10:23:57.001Z,17.57
2018-05-11T10:26:24.459Z,17.75
2018-05-11T10:28:52.161Z,17.93
2018-05-11T10:31:20.474Z,17.87
2018-05-11T10:33:47.972Z,18.01
2018-05-11T10:36:15.460Z,17.95
2018-05-11T10:38:42.979Z,17.77
2018-05-11T10:41:10.452Z,17.79
2018-05-11T10:43:37.949Z,17.68
2018-05-11T10:46:05.483Z,17.82
2018-05-11T10:48:33.044Z,17.89
2018-05-11T10:51:01.197Z,18.00
2018-05-11T10:53:28.693Z,18.00
2018-05-11T10:55:56.225Z,17.92
2018-05-11T10:58:23.783Z,18.08
2018-05-11T11:00:51.322Z,17.84
2018-05-11T11:03:19.265Z,18.08
2018-05-11T11:05:46.778Z,18.26
2018-05-11T11:08:14.248Z,18.13
2018-05-11T11:10:41.877Z,18.15
2018-05-11T11:13:09.481Z,18.09
2018-05-11T11:15:36.968Z,17.93
2018-05-11T11:18:04.439Z,18.12
2018-05-11T11:20:31.932Z,18.20
2018-05-11T11:22:59.429Z,18.11
2018-05-11T11:25:26.937Z,18.36
2018-05-11T11:27:54.451Z,18.43
2018-05-11T11:30:22.019Z,18.61
2018-05-11T11:32:49.523Z,18.71
2018-05-11T11:35:17.060Z,18.52
2018-05-11T11:37:44.574Z,18.53
2018-05-11T11:40:12.168Z,18.70
2018-05-11T11:42:39.691Z,18.61
2018-05-11T11:45:07.196Z,18.62
2018-05-11T11:47:34.775Z,18.65
2018-05-11T11:50:02.253Z,18.78
2018-05-11T11:52:29.755Z,18.80
2018-05-11T11:54:57.280Z,18.67
2018-05-11T11:57:24.771Z,18.85
2018-05-11T11:59:52.412Z,19.04
2018-05-11T12:02:19.906Z,18.86
2018-05-11T12:04:47.415Z,18.96
2018-05-11T12:07:14.897Z,18.80
2018-05-11T12:09:42.420Z,19.18
2018-05-11T12:12:09.917Z,19.26
2018-05-11T12:14:37.455Z,19.41
2018-05-11T12:17:04.971Z,19.39
2018-05-11T12:19:32.495Z,19.24
2018-05-11T12:22:00.001Z,19.04
2018-05-11T12:24:27.477Z,19.00
2018-05-11T12:26:54.956Z,19.25
2018-05-11T12:29:22.519Z,19.29
2018-05-11T12:31:49.982Z,19.32
2018-05-11T12:34:17.514Z,19.49
2018-05-11T12:36:45.120Z,19.33
2018-05-11T12:39:12.626Z,19.48
2018-05-11T12:41:40.102Z,19.71
2018-05-11T12:44:07.629Z,19.95
2018-05-11T12:46:35.274Z,19.89
2018-05-11T12:49:02.728Z,19.80
2018-05-11T12:51:30.252Z,19.99
2018-05-11T12:53:57.785Z,20.14
2018-05-11T12:56:25.305Z,20.01
2018-05-11T12:58:52.779Z,19.51
2018-05-11T13:01:20.264Z,19.72
2018-05-11T13:03:47.781Z,19.96
2018-05-11T13:06:15.312Z,19.75
2018-05-11T13:08:42.830Z,19.85
2018-05-11T13:11:10.329Z,19.71
2018-05-11T13:13:37.863Z,19.79
2018-05-11T13:16:05.356Z,19.82
2018-05-11T13:18:32.857Z,19.85
2018-05-11T13:21:00.345Z,19.77
2018-05-11T13:23:27.843Z,19.84
2018-05-11T13:25:55.463Z,19.78
2018-05-11T13:28:22.964Z,19.69
2018-05-11T13:30:50.447Z,19.69
2018-05-11T13:33:17.985Z,19.40
2018-05-11T13:35:45.471Z,19.64
2018-05-11T13:38:13.019Z,19.79
2018-05-11T13:40:40.544Z,19.62
2018-05-11T13:43:08.058Z,19.46
2018-05-11T13:45:35.637Z,19.60
2018-05-11T13:48:08.993Z,19.84
2018-05-11T13:50:36.511Z,19.72
2018-05-11T13:53:03.982Z,19.98
2018-05-11T13:55:31.498Z,20.12
2018-05-11T13:57:59.016Z,19.99
2018-05-11T14:00:26.496Z,20.38
2018-05-11T14:02:54.009Z,20.48
2018-05-11T14:05:21.508Z,20.34
2018-05-11T14:07:49.014Z,20.09
2018-05-11T14:10:16.666Z,20.16
2018-05-11T14:12:44.121Z,20.60
2018-05-11T14:15:11.671Z,20.52
2018-05-11T14:17:39.414Z,20.49
2018-05-11T14:20:06.957Z,20.77
2018-05-11T14:22:34.436Z,20.60
2018-05-11T14:25:02.017Z,20.71
2018-05-11T14:27:30.016Z,20.62
2018-05-11T14:29:57.554Z,20.57
2018-05-11T14:32:25.047Z,20.58
2018-05-11T14:34:52.588Z,20.82
2018-05-11T14:37:20.099Z,20.49
2018-05-11T14:39:47.601Z,20.99
2018-05-11T14:42:15.068Z,21.03
2018-05-11T14:44:42.557Z,21.24
2018-05-11T14:47:10.089Z,21.17
2018-05-11T14:49:37.622Z,20.95
2018-05-11T14:52:20.054Z,20.84
2018-05-11T14:55:35.390Z,20.93
2018-05-11T14:58:02.903Z,20.52
2018-05-11T15:00:30.403Z,20.32
2018-05-11T15:02:57.925Z,20.29
2018-05-11T15:05:25.425Z,20.35
2018-05-11T15:07:52.919Z,20.46
2018-05-11T15:10:20.452Z,20.69
2018-05-11T15:12:48.018Z,20.43
2018-05-11T15:15:15.631Z,20.43
2018-05-11T15:17:43.618Z,20.17
2018-05-11T15:20:11.102Z,20.56
2018-05-11T15:22:38.590Z,20.54
2018-05-11T15:25:06.078Z,20.59
2018-05-11T15:27:33.667Z,20.77
2018-05-11T15:30:01.173Z,20.66
2018-05-11T15:32:28.675Z,20.60
2018-05-11T15:34:56.196Z,20.57
2018-05-11T15:37:23.698Z,20.73
2018-05-11T15:39:51.209Z,20.58
2018-05-11T15:42:18.729Z,20.57
2018-05-11T15:44:46.279Z,20.55
2018-05-11T15:47:13.858Z,20.83
2018-05-11T15:49:41.333Z,20.81
2018-05-11T15:52:08.824Z,20.79
2018-05-11T15:54:36.339Z,20.58
2018-05-11T15:57:03.864Z,20.60
2018-05-11T15:59:31.338Z,20.70
2018-05-11T16:01:59.340Z,20.61
2018-05-11T16:04:26.857Z,20.39
2018-05-11T16:06:54.356Z,20.29
2018-05-11T16:09:22.020Z,20.50
2018-05-11T16:11:49.518Z,20.24
2018-05-11T16:14:17.049Z,20.29
2018-05-11T16:16:44.566Z,20.31
2018-05-11T16:19:12.082Z,20.65
2018-05-11T16:21:39.560Z,20.44
2018-05-11T16:24:07.063Z,20.63
2018-05-11T16:26:34.534Z,20.63
2018-05-11T16:29:02.039Z,20.49
2018-05-11T16:31:29.537Z,20.59
2018-05-11T16:33:57.072Z,20.37
2018-05-11T16:36:25.050Z,20.56
2018-05-11T16:38:52.535Z,20.23
2018-05-11T16:41:20.052Z,20.52
2018-05-11T16:43:47.536Z,20.50
2018-05-11T16:46:15.135Z,20.65
2018-05-11T16:48:42.610Z,20.64
2018-05-11T16:51:10.186Z,20.49
2018-05-11T16:53:37.644Z,20.52
2018-05-11T16:56:05.238Z,20.40
2018-05-11T16:58:32.732Z,20.23
2018-05-11T17:01:00.237Z,20.25
2018-05-11T17:03:27.744Z,20.46
2018-05-11T17:05:55.273Z,20.40
2018-05-11T17:08:22.739Z,20.50
2018-05-11T17:10:50.261Z,20.34
2018-05-11T17:13:17.758Z,20.34
2018-05-11T17:15:45.302Z,20.44
2018-05-11T17:18:13.760Z,20.14
2018-05-11T17:20:41.376Z,20.22
2018-05-11T17:23:08.997Z,20.40
2018-05-11T17:25:36.588Z,20.30
2018-05-11T17:28:04.444Z,20.37
2018-05-11T17:30:32.029Z,20.36
2018-05-11T17:33:00.241Z,20.27
2018-05-11T17:35:27.799Z,20.32
2018-05-11T17:37:55.577Z,20.29
2018-05-11T17:40:24.577Z,20.16
2018-05-11T17:42:52.085Z,20.26
2018-05-11T17:45:19.681Z,20.12
2018-05-11T17:47:47.622Z,20.27
2018-05-11T17:50:15.193Z,20.26
2018-05-11T17:52:43.406Z,20.19
2018-05-11T17:55:11.029Z,20.24
2018-05-11T17:57:38.561Z,20.17
2018-05-11T18:00:06.076Z,19.97
2018-05-11T18:02:33.550Z,19.99
2018-05-11T18:05:01.046Z,20.09
2018-05-11T18:07:28.574Z,20.10
2018-05-11T18:09:56.114Z,20.09
2018-05-11T18:12:23.729Z,20.07
2018-05-11T18:14:51.271Z,20.12
2018-05-11T18:17:18.810Z,19.87
2018-05-11T18:19:46.356Z,19.91
2018-05-11T18:22:13.927Z,19.96
2018-05-11T18:24:41.576Z,19.92
2018-05-11T18:27:09.075Z,19.94
2018-05-11T18:29:36.632Z,19.94
2018-05-11T18:32:04.165Z,19.91
2018-05-11T18:34:31.971Z,19.84
2018-05-11T18:36:59.489Z,19.90
2018-05-11T18:39:28.260Z,19.88
2018-05-11T18:41:55.801Z,19.79
2018-05-11T18:44:23.356Z,19.70
2018-05-11T18:46:51.459Z,19.78
2018-05-11T18:49:19.051Z,19.79
2018-05-11T18:51:46.804Z,19.84
2018-05-11T18:54:14.607Z,19.70
2018-05-11T18:56:41.860Z,19.76
2018-05-11T18:59:09.377Z,19.66
2018-05-11T19:01:36.900Z,19.77
2018-05-11T19:04:04.374Z,19.76
2018-05-11T19:06:32.002Z,19.80
2018-05-11T19:08:59.498Z,19.78
2018-05-11T19:11:27.024Z,19.59
2018-05-11T19:13:54.516Z,19.82
2018-05-11T19:16:22.083Z,19.76
2018-05-11T19:18:49.606Z,19.71
2018-05-11T19:21:17.110Z,19.67
2018-05-11T19:23:44.606Z,19.66
2018-05-11T19:26:12.097Z,19.50
2018-05-11T19:28:39.659Z,19.55
2018-05-11T19:31:07.162Z,19.62
2018-05-11T19:33:34.651Z,19.50
2018-05-11T19:36:02.188Z,19.60
2018-05-11T19:38:29.707Z,19.45
2018-05-11T19:40:57.228Z,19.52
2018-05-11T19:43:25.013Z,19.29
2018-05-11T19:45:52.567Z,19.14
2018-05-11T19:48:20.080Z,19.25
2018-05-11T19:50:47.795Z,18.88
2018-05-11T19:53:15.295Z,18.99
2018-05-11T19:55:42.864Z,18.98
2018-05-11T19:58:10.479Z,18.98
2018-05-11T20:00:38.000Z,18.74
2018-05-11T20:03:05.533Z,18.70
2018-05-11T20:05:33.039Z,18.59
2018-05-11T20:08:00.597Z,18.61
2018-05-11T20:10:28.234Z,18.60
2018-05-11T20:12:55.736Z,18.60
2018-05-11T20:15:23.411Z,18.55
2018-05-11T20:17:50.894Z,18.66
2018-05-11T20:20:18.446Z,18.64
2018-05-11T20:22:45.937Z,18.63
2018-05-11T20:25:13.519Z,18.54
2018-05-11T20:27:41.315Z,18.58
2018-05-11T20:30:08.864Z,18.75
2018-05-11T20:32:36.451Z,18.50
2018-05-11T20:35:03.894Z,18.55
2018-05-11T20:37:31.421Z,18.45
2018-05-11T20:39:58.932Z,18.40
2018-05-11T20:42:26.573Z,18.45
2018-05-11T20:44:54.080Z,18.44
2018-05-11T20:47:21.615Z,18.47
2018-05-11T20:49:49.153Z,18.47
2018-05-11T20:52:16.649Z,18.20
2018-05-11T20:54:44.200Z,18.37
2018-05-11T20:57:11.803Z,18.47
2018-05-11T20:59:39.276Z,18.32
2018-05-11T21:02:06.795Z,18.27
2018-05-11T21:04:34.308Z,18.22
2018-05-11T21:07:01.949Z,18.36
2018-05-11T21:09:29.444Z,18.48
2018-05-11T21:11:56.978Z,18.27
2018-05-11T21:14:24.562Z,18.24
2018-05-11T21:16:52.069Z,18.44
2018-05-11T21:19:19.559Z,18.41
2018-05-11T21:21:47.045Z,18.29
2018-05-11T21:24:14.577Z,18.24
2018-05-11T21:26:42.062Z,18.21
2018-05-11T21:29:09.553Z,18.21
2018-05-11T21:31:37.033Z,18.28
2018-05-11T21:34:04.601Z,18.09
2018-05-11T21:36:32.096Z,18.09
2018-05-11T21:38:59.622Z,18.19
2018-05-11T21:41:27.114Z,18.06
2018-05-11T21:43:54.864Z,18.11
2018-05-11T21:46:22.365Z,18.21
2018-05-11T21:48:49.865Z,18.18
2018-05-11T21:51:17.385Z,18.27
2018-05-11T21:53:44.862Z,17.99
2018-05-11T21:56:12.516Z,17.98
2018-05-11T21:58:40.005Z,18.00
2018-05-11T22:01:07.527Z,17.89
2018-05-11T22:03:35.024Z,18.03
2018-05-11T22:06:02.577Z,18.07
2018-05-11T22:08:30.035Z,17.92
2018-05-11T22:10:57.531Z,18.07
2018-05-11T22:13:25.085Z,18.02
2018-05-11T22:15:52.618Z,18.01
2018-05-11T22:18:20.157Z,18.24
2018-05-11T22:20:47.656Z,18.08
2018-05-11T22:23:15.258Z,18.13
2018-05-11T22:25:44.397Z,18.06
2018-05-11T22:28:13.567Z,18.24
2018-05-11T22:30:41.907Z,18.26
2018-05-11T22:33:09.808Z,18.26
2018-05-11T22:35:37.488Z,18.26
2018-05-11T22:38:07.759Z,18.25
2018-05-11T22:40:35.313Z,18.26
2018-05-11T22:43:09.127Z,18.26
2018-05-11T22:45:37.379Z,18.23
2018-05-11T22:48:05.253Z,18.18
2018-05-11T22:50:34.514Z,18.15
2018-05-11T22:53:02.438Z,18.22
2018-05-11T22:55:30.926Z,18.24
2018-05-11T22:57:58.445Z,18.15
2018-05-11T23:00:39.088Z,18.18
2018-05-11T23:03:06.628Z,18.18
2018-05-11T23:05:34.166Z,18.10
2018-05-11T23:08:02.053Z,18.00
2018-05-11T23:10:29.754Z,17.92
2018-05-11T23:12:57.840Z,17.85
2018-05-11T23:15:25.353Z,17.79
2018-05-11T23:17:52.854Z,17.96
2018-05-11T23:20:20.398Z,18.00
2018-05-11T23:22:47.903Z,17.94
2018-05-11T23:25:15.438Z,17.97
2018-05-11T23:27:43.039Z,17.87
2018-05-11T23:30:10.507Z,17.99
2018-05-11T23:32:38.012Z,17.93
2018-05-11T23:35:05.606Z,17.85
2018-05-11T23:37:33.295Z,17.92
2018-05-11T23:40:00.819Z,17.84
2018-05-11T23:42:28.326Z,17.88
2018-05-11T23:44:55.825Z,17.71
2018-05-11T23:47:23.401Z,17.69
2018-05-11T23:49:50.938Z,17.66
2018-05-11T23:52:18.384Z,17.70
2018-05-11T23:54:46.113Z,17.72
2018-05-11T23:57:13.646Z,17.71
2018-05-11T23:59:41.130Z,17.62
